Time;durP1;ratioP1;P1;durP2;ratioP2;P2;SDS_P1;SDS_P2;PMS_P1;PMS_P2;Temp;Humidity;BMP_temperature;BMP_pressure;BME280_temperature;BME280_humidity;BME280_pressure;Samples;Min_cycle;Max_cycle;Signal;HPM_P1;HPM_P2
2023/06/12 00:02:20;;;;;;;;;17.75;16.50;;;;;22.18;64.47;100704.13;4973630;28;45645;-73
2023/06/12 00:04:45;;;;;;;;;21.25;20.50;;;;;22.20;64.48;100699.41;4973473;28;46759;-74
2023/06/12 00:07:12;;;;;;;;;19.00;17.00;;;;;22.21;64.76;100706.41;4973172;28;45861;-75
2023/06/12 00:09:37;;;;;;;;;18.75;17.75;;;;;22.18;64.97;100696.94;4973274;28;45736;-74
2023/06/12 00:15:24;;;;;;;;;18.25;16.75;;;;;22.09;65.17;100695.34;4972968;28;45593;-74
2023/06/12 00:17:49;;;;;;;;;20.00;17.75;;;;;22.09;65.56;100697.19;4972893;28;45625;-74
2023/06/12 00:20:15;;;;;;;;;17.25;16.50;;;;;22.03;65.31;100695.22;4972846;28;45821;-74
2023/06/12 00:22:40;;;;;;;;;17.50;15.50;;;;;22.02;65.20;100693.59;4955352;28;45638;-74
2023/06/12 00:25:07;;;;;;;;;17.50;16.50;;;;;21.98;65.32;100693.09;4973147;28;45862;-74
2023/06/12 00:27:33;;;;;;;;;19.75;18.25;;;;;21.88;65.29;100676.50;4972653;28;46976;-74
2023/06/12 00:29:58;;;;;;;;;18.50;16.25;;;;;22.01;65.78;100687.44;4971327;28;45692;-75
2023/06/12 00:32:25;;;;;;;;;17.75;17.00;;;;;22.03;65.38;100685.38;4973050;28;45954;-75
2023/06/12 00:34:51;;;;;;;;;16.25;15.50;;;;;22.05;64.94;100685.22;4972874;28;46599;-74
2023/06/12 00:37:17;;;;;;;;;19.25;16.75;;;;;22.06;64.96;100681.53;4972377;28;46253;-73
2023/06/12 00:39:43;;;;;;;;;16.75;15.75;;;;;22.06;64.86;100682.38;4972177;28;45748;-73
2023/06/12 00:45:58;;;;;;;;;16.00;15.50;;;;;22.07;65.26;100691.22;4965528;28;46057;-74
2023/06/12 00:48:23;;;;;;;;;15.00;14.75;;;;;22.07;65.12;100686.72;4972256;28;46016;-74
2023/06/12 00:50:49;;;;;;;;;22.50;19.25;;;;;22.09;64.80;100686.50;4972588;28;46392;-74
2023/06/12 00:53:14;;;;;;;;;16.00;13.50;;;;;22.06;64.60;100681.53;4972794;28;45665;-74
2023/06/12 00:55:40;;;;;;;;;16.00;14.75;;;;;22.12;65.44;100683.50;4954677;28;48323;-74
2023/06/12 00:58:06;;;;;;;;;17.00;16.00;;;;;22.07;64.94;100669.88;4954611;28;46078;-74
2023/06/12 01:00:31;;;;;;;;;16.25;14.50;;;;;22.12;65.19;100678.97;4972054;28;45748;-73
2023/06/12 01:03:04;;;;;;;;;19.00;17.25;;;;;22.13;64.95;100685.16;4972159;28;45676;-74
2023/06/12 01:05:33;;;;;;;;;17.75;17.25;;;;;22.13;65.36;100682.47;4972213;28;45691;-74
2023/06/12 01:08:33;;;;;;;;;19.50;18.00;;;;;22.14;65.43;100678.78;4971680;28;47182;-74
2023/06/12 01:11:09;;;;;;;;;19.25;18.75;;;;;22.10;65.48;100677.50;4971826;28;45852;-74
2023/06/12 01:13:36;;;;;;;;;18.25;15.00;;;;;22.11;65.31;100673.81;4972151;28;45798;-73
2023/06/12 01:16:02;;;;;;;;;15.00;15.00;;;;;22.11;65.07;100671.16;4972101;28;46550;-74
2023/06/12 01:18:29;;;;;;;;;18.00;18.00;;;;;22.08;65.64;100660.81;4972208;28;46053;-73
2023/06/12 01:20:58;;;;;;;;;18.50;17.75;;;;;22.09;65.32;100673.16;4971634;28;46119;-74
2023/06/12 01:23:38;;;;;;;;;18.25;16.50;;;;;22.07;65.87;100677.88;4972570;28;45897;-74
2023/06/12 01:26:21;;;;;;;;;17.75;17.00;;;;;22.02;65.92;100664.25;4971461;28;46495;-73
2023/06/12 01:29:01;;;;;;;;;20.50;20.50;;;;;22.06;65.68;100668.19;4971961;28;46227;-74
2023/06/12 01:32:08;;;;;;;;;21.75;20.00;;;;;22.04;66.09;100663.03;4971823;28;45845;-75
2023/06/12 01:34:41;;;;;;;;;23.25;20.25;;;;;22.03;66.08;100660.53;4971527;28;46053;-73
2023/06/12 01:37:22;;;;;;;;;19.00;17.75;;;;;22.06;65.89;100662.88;4971431;28;47411;-74
2023/06/12 01:39:59;;;;;;;;;18.75;17.75;;;;;22.05;65.62;100661.19;4971660;28;47023;-73
2023/06/12 01:42:29;;;;;;;;;5.00;3.00;;;;;22.07;66.09;100654.69;4971378;28;45769;-74
2023/06/12 01:44:55;;;;;;;;;21.00;19.00;;;;;22.00;65.71;100651.06;4971521;28;45937;-74
2023/06/12 01:47:21;;;;;;;;;18.50;16.50;;;;;22.06;65.83;100661.03;4953903;28;47225;-74
2023/06/12 01:49:46;;;;;;;;;18.25;17.50;;;;;22.05;65.38;100659.38;4970965;28;45861;-73
2023/06/12 01:52:12;;;;;;;;;19.25;18.50;;;;;22.04;65.25;100651.53;4971324;28;45773;-74
2023/06/12 01:54:37;;;;;;;;;19.75;17.75;;;;;22.05;65.68;100663.88;4971797;28;45569;-74
2023/06/12 01:57:03;;;;;;;;;24.25;19.25;;;;;22.02;65.65;100662.41;4971398;28;45668;-74
2023/06/12 01:59:28;;;;;;;;;15.25;15.25;;;;;22.01;65.19;100660.75;4971567;28;45901;-75
2023/06/12 02:01:54;;;;;;;;;17.25;15.25;;;;;21.99;65.84;100664.59;4971423;28;45749;-73
2023/06/12 02:04:19;;;;;;;;;16.25;15.50;;;;;21.97;65.38;100661.28;4971984;28;45681;-73
2023/06/12 02:06:45;;;;;;;;;21.00;18.75;;;;;21.97;65.31;100663.97;4970073;28;47401;-72
2023/06/12 02:09:10;;;;;;;;;22.00;19.75;;;;;21.90;65.56;100657.66;4971495;28;45899;-74
2023/06/12 02:11:36;;;;;;;;;19.00;18.75;;;;;21.91;65.63;100672.66;4971341;28;45919;-74
2023/06/12 02:14:01;;;;;;;;;16.50;15.50;;;;;21.91;65.88;100676.16;4971698;28;45807;-75
2023/06/12 02:16:27;;;;;;;;;18.25;17.00;;;;;21.86;65.29;100669.69;4970779;28;47299;-73
2023/06/12 02:18:53;;;;;;;;;17.25;16.75;;;;;21.85;64.96;100671.53;4971276;28;46522;-74
2023/06/12 02:21:18;;;;;;;;;16.25;15.75;;;;;21.85;65.18;100679.53;4970992;28;45671;-74
2023/06/12 02:23:43;;;;;;;;;18.25;16.50;;;;;21.83;64.93;100686.88;4971087;28;45664;-74
2023/06/12 02:32:14;;;;;;;;;15.75;14.50;;;;;21.55;65.08;100654.59;4970839;28;45702;-74
2023/06/12 02:34:40;;;;;;;;;18.00;16.75;;;;;21.73;64.77;100686.31;4971474;28;45573;-74
2023/06/12 02:37:08;;;;;;;;;17.50;15.50;;;;;21.73;64.78;100695.13;4970684;28;46685;-74
2023/06/12 02:39:34;;;;;;;;;14.75;14.00;;;;;21.72;64.49;100703.31;4970905;28;45736;-74
2023/06/12 02:42:00;;;;;;;;;19.00;17.00;;;;;21.70;64.29;100689.34;4969309;28;45960;-73
2023/06/12 02:44:25;;;;;;;;;15.00;14.75;;;;;21.69;64.45;100685.00;4970827;28;45767;-73
2023/06/12 02:46:55;;;;;;;;;17.25;16.75;;;;;21.61;64.28;100677.06;4970764;28;46300;-73
2023/06/12 02:49:22;;;;;;;;;17.25;15.75;;;;;21.65;64.37;100689.03;4971296;28;46016;-74
2023/06/12 02:51:47;;;;;;;;;18.00;14.50;;;;;21.62;64.53;100682.22;4969564;28;45716;-73
2023/06/12 02:54:16;;;;;;;;;17.00;13.75;;;;;21.59;64.06;100679.09;4970722;28;45876;-74
2023/06/12 03:00:03;;;;;;;;;17.75;15.50;;;;;21.54;64.51;100682.28;4970602;28;45662;-74
2023/06/12 03:02:28;;;;;;;;;13.25;13.25;;;;;21.51;64.28;100671.97;4973128;28;45873;-74
2023/06/12 03:04:54;;;;;;;;;14.75;14.75;;;;;21.48;64.16;100671.50;4974096;28;45774;-74
2023/06/12 03:07:19;;;;;;;;;17.25;15.25;;;;;21.48;64.34;100680.34;4974200;28;45889;-72
2023/06/12 03:09:45;;;;;;;;;15.00;13.75;;;;;21.46;64.06;100684.19;4974065;28;45617;-74
2023/06/12 03:12:11;;;;;;;;;16.25;14.00;;;;;21.46;64.28;100673.50;4973846;28;45543;-75
2023/06/12 03:14:38;;;;;;;;;16.00;15.00;;;;;21.46;64.19;100673.50;4974600;28;45643;-74
2023/06/12 03:17:04;;;;;;;;;17.25;14.00;;;;;21.45;64.41;100675.34;4956349;28;47539;-74
2023/06/12 03:19:30;;;;;;;;;14.75;13.00;;;;;21.45;64.15;100677.19;4974113;28;46200;-74
2023/06/12 03:21:56;;;;;;;;;19.50;17.50;;;;;21.43;64.36;100680.00;4973818;28;45801;-74
2023/06/12 03:24:21;;;;;;;;;16.50;15.75;;;;;21.41;64.41;100676.72;4974247;28;46007;-74
2023/06/12 03:26:47;;;;;;;;;16.25;15.25;;;;;21.36;64.01;100679.09;4973853;28;46616;-74
2023/06/12 03:29:12;;;;;;;;;16.00;15.00;;;;;21.36;64.20;100684.41;4973315;28;46062;-74
2023/06/12 03:31:38;;;;;;;;;19.75;16.50;;;;;21.34;64.50;100683.75;4973415;28;45563;-72
2023/06/12 03:34:04;;;;;;;;;16.25;13.75;;;;;21.33;64.04;100684.75;4973936;28;45853;-73
2023/06/12 03:36:33;;;;;;;;;20.50;15.25;;;;;21.31;64.02;100684.13;4973018;28;46392;-72
2023/06/12 03:39:00;;;;;;;;;16.75;16.00;;;;;21.30;64.43;100683.28;4973235;28;46113;-73
2023/06/12 03:41:26;;;;;;;;;18.75;16.25;;;;;21.24;64.48;100672.50;4973583;28;45701;-72
2023/06/12 03:47:14;;;;;;;;;17.25;17.00;;;;;21.23;65.49;100679.66;4962060;28;45978;-74
2023/06/12 03:49:40;;;;;;;;;22.25;19.50;;;;;21.26;66.19;100687.31;4973074;28;47022;-72
2023/06/12 03:52:06;;;;;;;;;19.00;18.50;;;;;21.23;66.26;100689.47;4973539;28;45869;-74
2023/06/12 03:54:31;;;;;;;;;19.00;17.75;;;;;21.16;66.30;100683.22;4973595;28;45670;-74
2023/06/12 03:56:57;;;;;;;;;19.00;17.75;;;;;21.17;66.89;100703.50;4972938;28;46822;-74
2023/06/12 04:02:44;;;;;;;;;17.00;16.50;;;;;21.10;66.58;100703.38;4972977;28;45769;-73
2023/06/12 04:05:10;;;;;;;;;16.75;15.75;;;;;21.04;66.98;100687.25;4973505;28;45567;-74
2023/06/12 04:07:39;;;;;;;;;18.50;17.50;;;;;20.93;66.92;100686.63;4955245;28;46512;-73
2023/06/12 04:10:07;;;;;;;;;18.00;16.00;;;;;20.91;67.37;100688.63;4973116;28;46400;-73
2023/06/12 04:12:32;;;;;;;;;18.75;16.75;;;;;20.90;67.51;100694.97;4972153;28;45776;-73
2023/06/12 04:14:57;;;;;;;;;17.75;17.25;;;;;20.86;67.61;100685.66;4972944;28;45557;-73
2023/06/12 04:17:23;;;;;;;;;15.50;13.25;;;;;20.87;67.60;100689.16;4972564;28;46463;-73
2023/06/12 04:19:49;;;;;;;;;16.50;15.50;;;;;20.87;67.13;100705.97;4973078;28;45885;-74
2023/06/12 04:22:16;;;;;;;;;17.50;16.00;;;;;20.85;67.55;100681.34;4972847;28;45641;-73
2023/06/12 04:24:42;;;;;;;;;13.50;13.50;;;;;20.80;67.50;100673.03;4972617;28;45648;-74
2023/06/12 04:27:10;;;;;;;;;18.75;15.00;;;;;20.79;67.83;100682.03;4972424;28;47324;-73
2023/06/12 04:32:57;;;;;;;;;17.00;17.00;;;;;20.70;67.91;100677.75;4972633;28;45737;-73
2023/06/12 04:35:22;;;;;;;;;17.25;15.25;;;;;20.62;67.79;100672.44;4972754;28;45948;-74
2023/06/12 04:37:48;;;;;;;;;13.50;12.75;;;;;20.67;67.94;100675.44;4972443;28;47265;-72
2023/06/12 04:40:14;;;;;;;;;17.00;16.25;;;;;20.49;68.09;100657.03;4972372;28;45937;-74
2023/06/12 04:42:41;;;;;;;;;14.50;14.00;;;;;20.59;67.99;100682.59;4972417;28;45846;-74
2023/06/12 04:45:08;;;;;;;;;16.25;14.50;;;;;20.51;68.26;100680.81;4972801;28;45596;-74
2023/06/12 04:47:36;;;;;;;;;16.75;15.25;;;;;20.52;68.08;100690.44;4971935;28;45724;-74
2023/06/12 04:50:01;;;;;;;;;15.50;14.50;;;;;20.43;68.26;100691.47;4971913;28;46918;-73
2023/06/12 04:52:28;;;;;;;;;15.00;15.00;;;;;20.44;68.51;100691.31;4972105;28;45665;-73
2023/06/12 04:54:53;;;;;;;;;16.50;16.50;;;;;20.44;68.22;100688.66;4955039;28;45783;-73
2023/06/12 04:57:20;;;;;;;;;15.00;13.00;;;;;20.28;68.13;100672.69;4972135;28;49809;-73
2023/06/12 05:03:08;;;;;;;;;14.00;13.00;;;;;20.36;68.42;100699.31;4972317;28;46055;-74
2023/06/12 05:05:33;;;;;;;;;10.25;9.25;;;;;20.31;68.27;100696.31;4954185;28;45834;-73
2023/06/12 05:07:58;;;;;;;;;16.50;13.75;;;;;20.23;68.43;100698.16;4970541;28;47401;-73
2023/06/12 05:10:25;;;;;;;;;17.25;15.50;;;;;20.21;68.37;100693.00;4971696;28;46155;-73
2023/06/12 05:12:50;;;;;;;;;16.25;13.75;;;;;20.19;68.69;100691.50;4971235;28;45785;-73
2023/06/12 05:18:37;;;;;;;;;15.50;15.25;;;;;20.15;68.59;100700.81;4971766;28;46495;-73
2023/06/12 05:21:03;;;;;;;;;14.50;14.00;;;;;20.13;68.78;100699.13;4971505;28;47065;-74
2023/06/12 05:23:29;;;;;;;;;16.75;14.50;;;;;20.13;68.68;100694.84;4972106;28;46081;-73
2023/06/12 05:25:56;;;;;;;;;16.00;15.00;;;;;20.18;69.23;100695.16;4972495;28;45747;-81
2023/06/12 05:28:21;;;;;;;;;14.25;12.50;;;;;20.10;68.42;100680.88;4972317;28;48069;-81
2023/06/12 05:30:47;;;;;;;;;14.00;12.00;;;;;20.13;68.67;100680.53;4972427;28;45969;-80
2023/06/12 05:33:13;;;;;;;;;15.50;15.25;;;;;20.28;68.62;100693.16;4975926;28;45763;-80
2023/06/12 05:35:39;;;;;;;;;14.75;13.00;;;;;20.26;68.21;100684.50;4974225;28;45564;-80
2023/06/12 05:38:04;;;;;;;;;19.00;14.00;;;;;20.35;68.24;100694.19;4976968;28;46633;-82
2023/06/12 05:40:30;;;;;;;;;14.50;13.00;;;;;20.38;68.64;100697.31;4974644;28;46252;-82
2023/06/12 05:42:59;;;;;;;;;16.00;14.00;;;;;20.42;67.88;100698.63;4971081;28;46052;-84
2023/06/12 05:49:00;;;;;;;;;16.50;15.00;;;;;20.44;68.01;100706.44;4964243;28;45822;-83
2023/06/12 05:51:27;;;;;;;;;15.00;12.75;;;;;20.37;67.89;100681.50;4972259;28;45717;-80
2023/06/12 05:53:57;;;;;;;;;18.50;15.75;;;;;20.48;67.62;100702.44;4978324;28;45518;-86
2023/06/12 05:56:23;;;;;;;;;14.00;13.75;;;;;20.51;67.60;100694.94;4970541;28;45971;-75
2023/06/12 05:58:49;;;;;;;;;15.00;13.00;;;;;20.50;67.47;100687.97;4971023;28;46596;-74
2023/06/12 06:01:17;;;;;;;;;13.00;12.50;;;;;20.49;67.39;100677.50;4970708;28;46218;-74
2023/06/12 06:03:46;;;;;;;;;13.50;12.25;;;;;20.58;67.03;100703.06;4971132;28;45645;-73
2023/06/12 06:06:12;;;;;;;;;10.00;9.00;;;;;20.55;67.14;100703.44;4971190;28;45564;-74
2023/06/12 06:08:38;;;;;;;;;11.25;11.00;;;;;20.53;66.96;100705.41;4971162;28;47564;-75
2023/06/12 06:11:03;;;;;;;;;12.25;12.00;;;;;20.49;66.96;100702.28;4971079;28;45660;-72
2023/06/12 06:13:29;;;;;;;;;14.75;13.25;;;;;20.50;66.95;100703.94;4971317;28;45975;-73
2023/06/12 06:19:16;;;;;;;;;14.50;13.50;;;;;20.47;66.80;100704.28;4971050;28;45808;-74
2023/06/12 06:21:41;;;;;;;;;14.25;13.75;;;;;20.47;66.93;100708.75;4970825;28;46058;-74
2023/06/12 06:24:07;;;;;;;;;12.00;12.00;;;;;20.48;66.99;100705.09;4971492;28;45643;-75
2023/06/12 06:26:32;;;;;;;;;12.75;12.00;;;;;20.49;67.07;100712.09;4970990;28;45892;-74
2023/06/12 06:28:57;;;;;;;;;12.50;12.00;;;;;20.46;67.09;100705.25;4970722;28;46603;-73
2023/06/12 06:31:23;;;;;;;;;11.25;10.75;;;;;20.48;66.75;100705.94;4970716;28;46982;-73
2023/06/12 06:33:49;;;;;;;;;13.25;11.25;;;;;20.49;66.87;100715.59;4971334;28;45612;-73
2023/06/12 06:36:15;;;;;;;;;14.25;13.00;;;;;20.49;67.06;100712.94;4971666;28;45792;-73
2023/06/12 06:38:40;;;;;;;;;13.50;13.50;;;;;20.46;66.89;100704.44;4974610;28;46293;-74
2023/06/12 06:41:06;;;;;;;;;13.75;13.75;;;;;20.47;66.85;100706.94;4972776;28;48419;-73
2023/06/12 06:43:31;;;;;;;;;13.75;11.50;;;;;20.52;66.75;100706.41;4956666;28;45752;-74
2023/06/12 06:49:18;;;;;;;;;12.25;10.75;;;;;20.61;66.42;100702.75;4968449;28;45768;-74
2023/06/12 06:51:44;;;;;;;;;10.00;9.00;;;;;20.65;66.36;100700.56;4974069;28;45695;-74
2023/06/12 06:54:09;;;;;;;;;12.50;10.75;;;;;20.64;66.07;100690.91;4974244;28;45709;-73
2023/06/12 06:56:35;;;;;;;;;11.75;10.50;;;;;20.74;66.36;100699.53;4974111;28;45890;-74
2023/06/12 06:59:00;;;;;;;;;14.25;13.25;;;;;20.72;65.97;100693.56;4973831;28;47275;-73
2023/06/12 07:04:48;;;;;;;;;12.00;10.50;;;;;20.75;65.54;100695.84;4974104;28;45669;-73
2023/06/12 07:07:14;;;;;;;;;11.75;11.00;;;;;20.80;66.08;100701.50;4973751;28;45684;-74
2023/06/12 07:09:39;;;;;;;;;11.75;11.50;;;;;20.81;65.75;100697.84;4973963;28;46887;-73
2023/06/12 07:12:05;;;;;;;;;13.50;12.00;;;;;20.87;65.60;100711.31;4974096;28;45902;-74
2023/06/12 07:14:30;;;;;;;;;15.75;12.00;;;;;20.87;65.53;100700.66;4973958;28;45707;-73
2023/06/12 07:16:56;;;;;;;;;13.00;13.00;;;;;20.92;65.54;100695.63;4973595;28;45480;-73
2023/06/12 07:19:21;;;;;;;;;13.75;12.50;;;;;20.97;65.53;100721.75;4973986;28;45635;-75
2023/06/12 07:21:46;;;;;;;;;13.00;12.00;;;;;20.87;65.33;100686.50;4973616;28;46065;-73
2023/06/12 07:24:12;;;;;;;;;13.25;12.00;;;;;21.00;65.38;100700.06;4974068;28;45860;-73
2023/06/12 07:26:37;;;;;;;;;12.75;12.75;;;;;21.03;65.39;100698.91;4973879;28;45878;-72
2023/06/12 07:29:03;;;;;;;;;14.00;13.00;;;;;21.01;65.35;100700.91;4973252;28;47586;-72
2023/06/12 07:31:28;;;;;;;;;13.50;11.75;;;;;21.00;65.40;100704.59;4973151;28;46969;-74
2023/06/12 07:33:55;;;;;;;;;15.25;13.50;;;;;21.05;65.15;100711.06;4973768;28;45706;-73
2023/06/12 07:36:21;;;;;;;;;13.00;10.50;;;;;21.10;65.30;100705.19;4974072;28;45912;-73
2023/06/12 07:38:46;;;;;;;;;14.75;13.00;;;;;21.15;65.28;100705.53;4973682;28;45693;-74
2023/06/12 07:41:11;;;;;;;;;13.25;13.00;;;;;21.18;64.80;100699.84;4973619;28;45796;-74
2023/06/12 07:43:37;;;;;;;;;13.75;13.25;;;;;21.25;64.91;100712.31;4973656;28;46152;-74
2023/06/12 07:46:02;;;;;;;;;14.00;13.75;;;;;21.31;64.74;100708.09;4973107;28;45823;-74
2023/06/12 07:48:27;;;;;;;;;13.50;13.00;;;;;21.34;64.34;100705.06;4971947;28;47436;-73
2023/06/12 07:50:53;;;;;;;;;12.25;10.75;;;;;21.39;64.17;100696.53;4955782;28;45909;-74
2023/06/12 07:53:18;;;;;;;;;15.25;14.00;;;;;21.47;64.29;100710.66;4955886;28;46130;-73
2023/06/12 07:55:44;;;;;;;;;17.50;14.25;;;;;21.48;64.05;100704.34;4973474;28;45608;-74
2023/06/12 07:58:10;;;;;;;;;17.00;15.50;;;;;21.54;64.16;100702.81;4955336;28;47782;-73
2023/06/12 08:00:36;;;;;;;;;14.25;14.00;;;;;21.52;64.36;100697.63;4973061;28;46446;-74
2023/06/12 08:03:03;;;;;;;;;14.00;14.00;;;;;21.51;64.22;100697.81;4972950;28;45530;-73
2023/06/12 08:05:30;;;;;;;;;16.00;15.25;;;;;21.51;64.17;100709.31;4973308;28;45714;-73
2023/06/12 08:07:55;;;;;;;;;18.00;16.00;;;;;21.47;63.77;100701.84;4973164;28;46348;-72
2023/06/12 08:10:21;;;;;;;;;14.75;14.25;;;;;21.45;63.99;100711.84;4973391;28;46234;-74
2023/06/12 08:12:46;;;;;;;;;14.25;13.00;;;;;21.46;64.19;100703.66;4973029;28;45861;-74
2023/06/12 08:15:13;;;;;;;;;16.75;15.00;;;;;21.51;64.21;100711.13;4972636;28;45683;-73
2023/06/12 08:17:41;;;;;;;;;14.75;13.50;;;;;21.49;63.77;100700.63;4972889;28;45848;-74
2023/06/12 08:20:09;;;;;;;;;14.75;13.50;;;;;21.57;63.75;100707.75;4972828;28;45919;-73
2023/06/12 08:22:35;;;;;;;;;10.50;10.50;;;;;21.58;63.49;100694.25;4971491;28;45727;-73
2023/06/12 08:25:06;;;;;;;;;13.50;12.75;;;;;21.62;63.68;100694.72;4973222;28;45594;-72
2023/06/12 08:27:33;;;;;;;;;16.00;14.00;;;;;21.61;63.63;100691.22;4973039;28;46271;-73
2023/06/12 08:29:58;;;;;;;;;16.75;14.50;;;;;21.67;63.47;100682.50;4972436;28;45716;-74
2023/06/12 08:35:46;;;;;;;;;16.25;15.50;;;;;21.71;63.76;100677.63;4972612;28;45655;-72
2023/06/12 08:38:12;;;;;;;;;16.75;16.00;;;;;21.72;63.96;100676.63;4972833;28;45781;-73
2023/06/12 08:40:37;;;;;;;;;15.25;15.00;;;;;21.79;63.33;100685.59;4972187;28;46202;-72
2023/06/12 08:43:04;;;;;;;;;16.00;15.25;;;;;21.85;63.26;100682.22;4972831;28;45645;-73
2023/06/12 08:45:32;;;;;;;;;15.00;14.25;;;;;21.89;63.42;100672.81;4972560;28;45784;-73
2023/06/12 08:48:00;;;;;;;;;13.75;13.25;;;;;21.94;63.17;100665.13;4972401;28;47390;-73
2023/06/12 08:50:27;;;;;;;;;17.75;15.50;;;;;21.96;63.57;100676.47;4971934;28;46183;-73
2023/06/12 08:52:53;;;;;;;;;16.75;14.50;;;;;21.97;63.22;100672.75;4972659;28;45808;-73
2023/06/12 08:55:21;;;;;;;;;13.75;13.00;;;;;22.00;63.37;100675.09;4972338;28;45734;-74
2023/06/12 08:57:47;;;;;;;;;16.00;14.50;;;;;22.03;62.78;100684.56;4972557;28;45952;-73
2023/06/12 09:00:13;;;;;;;;;19.50;16.50;;;;;22.05;62.54;100679.88;4970247;28;47480;-73
2023/06/12 09:06:05;;;;;;;;;19.00;15.25;;;;;22.14;62.48;100684.13;4972308;28;45981;-74
2023/06/12 09:08:32;;;;;;;;;15.50;13.75;;;;;22.20;62.34;100678.06;4972092;28;46708;-72
2023/06/12 09:10:58;;;;;;;;;15.75;14.00;;;;;22.26;62.32;100671.97;4971966;28;45692;-74
2023/06/12 09:13:24;;;;;;;;;17.25;14.00;;;;;22.31;62.64;100660.75;4972238;28;45962;-73
2023/06/12 09:15:50;;;;;;;;;17.25;16.00;;;;;22.38;62.46;100662.53;4972286;28;45768;-73
2023/06/12 09:18:19;;;;;;;;;17.00;16.75;;;;;22.45;62.30;100663.44;4972407;28;46575;-74
2023/06/12 09:20:45;;;;;;;;;18.00;17.50;;;;;22.49;62.10;100656.72;4971341;28;47165;-73
2023/06/12 09:23:13;;;;;;;;;18.50;16.75;;;;;22.49;62.08;100664.72;4972104;28;45668;-73
2023/06/12 09:25:43;;;;;;;;;16.25;16.00;;;;;22.56;62.06;100667.50;4971602;28;45891;-73
2023/06/12 09:28:10;;;;;;;;;13.75;13.75;;;;;22.60;61.31;100653.56;4971469;28;46418;-73
2023/06/12 09:36:47;;;;;;;;;16.75;15.75;;;;;22.75;61.13;100663.44;4971715;28;45684;-73
2023/06/12 09:39:23;;;;;;;;;18.00;16.00;;;;;22.78;61.33;100657.75;4971841;28;46447;-73
2023/06/12 09:41:49;;;;;;;;;20.25;19.25;;;;;22.74;60.77;100654.59;4971638;28;46026;-72
2023/06/12 09:44:41;;;;;;;;;18.75;17.50;;;;;22.87;60.67;100660.09;4971579;28;45778;-73
2023/06/12 09:47:06;;;;;;;;;20.00;17.50;;;;;22.91;60.94;100657.88;4967516;28;45745;-73
2023/06/12 09:49:34;;;;;;;;;18.00;18.00;;;;;22.95;60.26;100659.16;4971170;28;47296;-73
2023/06/12 09:52:04;;;;;;;;;17.75;16.75;;;;;23.00;60.38;100676.28;4971133;28;47247;-73
2023/06/12 09:54:31;;;;;;;;;18.50;18.25;;;;;23.07;60.15;100673.69;4971696;28;45643;-72
2023/06/12 09:56:58;;;;;;;;;19.75;19.00;;;;;23.11;59.68;100674.97;4971512;28;45560;-73
2023/06/12 09:59:27;;;;;;;;;20.25;18.25;;;;;23.15;59.52;100672.75;4970902;28;47378;-74
2023/06/12 10:02:03;;;;;;;;;22.50;21.00;;;;;23.22;59.72;100678.97;4971172;28;45817;-74
2023/06/12 10:04:37;;;;;;;;;17.50;16.50;;;;;23.26;60.01;100675.78;4971086;28;45822;-73
2023/06/12 10:07:11;;;;;;;;;19.00;18.50;;;;;23.33;60.14;100673.13;4971297;28;45726;-73
2023/06/12 10:09:39;;;;;;;;;22.75;21.00;;;;;23.26;59.82;100649.03;4971061;28;47593;-73
2023/06/12 10:12:06;;;;;;;;;22.00;19.50;;;;;23.42;59.78;100672.84;4970802;28;46398;-73
2023/06/12 10:14:33;;;;;;;;;20.00;18.50;;;;;23.44;59.23;100662.78;4971149;28;45705;-73
2023/06/12 10:17:01;;;;;;;;;20.00;16.25;;;;;23.53;59.58;100673.38;4970985;28;45605;-71
2023/06/12 10:19:28;;;;;;;;;24.00;21.75;;;;;23.59;59.08;100677.97;4971290;28;46195;-74
2023/06/12 10:21:54;;;;;;;;;21.50;21.00;;;;;23.62;59.24;100681.09;4971181;28;45692;-72
2023/06/12 10:24:21;;;;;;;;;21.25;20.00;;;;;23.50;59.11;100647.00;4970067;28;46026;-72
2023/06/12 10:26:49;;;;;;;;;19.75;19.25;;;;;23.64;58.89;100667.53;4971138;28;45644;-72
2023/06/12 10:29:25;;;;;;;;;20.00;18.50;;;;;23.69;58.90;100667.78;4970969;28;46371;-72
2023/06/12 10:31:50;;;;;;;;;27.25;22.25;;;;;23.75;58.68;100664.31;4970640;28;47350;-73
2023/06/12 10:34:16;;;;;;;;;16.00;14.75;;;;;23.79;59.25;100660.25;4971290;28;46105;-73
2023/06/12 10:36:43;;;;;;;;;21.00;19.50;;;;;23.83;58.79;100656.97;4970838;28;45664;-73
2023/06/12 10:39:17;;;;;;;;;21.75;19.50;;;;;23.91;58.73;100660.53;4971037;28;45612;-73
2023/06/12 10:41:57;;;;;;;;;20.25;19.25;;;;;23.93;58.75;100653.97;4970638;28;46017;-72
2023/06/12 10:44:39;;;;;;;;;21.75;21.25;;;;;23.97;58.82;100667.81;4971268;28;45751;-73
2023/06/12 10:47:15;;;;;;;;;22.75;21.25;;;;;23.97;58.75;100662.44;4971097;28;45920;-74
2023/06/12 10:49:56;;;;;;;;;18.25;17.25;;;;;24.00;58.74;100662.88;4970573;28;45919;-73
2023/06/12 10:52:21;;;;;;;;;22.25;20.75;;;;;24.05;58.51;100664.97;4970869;28;46620;-73
2023/06/12 10:54:48;;;;;;;;;23.00;22.00;;;;;24.07;58.89;100663.75;4971424;28;45839;-73
2023/06/12 10:57:14;;;;;;;;;26.00;24.75;;;;;24.11;58.21;100669.53;4971025;28;45805;-73
2023/06/12 10:59:39;;;;;;;;;20.75;19.25;;;;;24.07;57.74;100658.41;4970282;28;46544;-72
2023/06/12 11:02:05;;;;;;;;;24.50;23.75;;;;;24.09;58.28;100653.66;4970338;28;47148;-73
2023/06/12 11:04:39;;;;;;;;;29.25;25.00;;;;;24.16;58.11;100661.75;4970742;28;45663;-72
2023/06/12 11:07:05;;;;;;;;;26.75;26.00;;;;;24.18;58.01;100654.38;4970555;28;45717;-73
2023/06/12 11:09:40;;;;;;;;;48.25;39.00;;;;;24.18;58.21;100655.19;4970114;28;46349;-73
2023/06/12 11:12:07;;;;;;;;;53.50;43.50;;;;;24.23;57.79;100658.13;4970687;28;46234;-72
2023/06/12 11:14:33;;;;;;;;;44.00;36.00;;;;;24.23;57.60;100654.63;4970481;28;45636;-74
2023/06/12 11:16:59;;;;;;;;;28.75;28.00;;;;;24.27;57.30;100660.41;4970318;28;45848;-73
2023/06/12 11:19:30;;;;;;;;;36.50;31.00;;;;;24.24;57.06;100657.09;4970250;28;46557;-73
2023/06/12 11:21:56;;;;;;;;;37.50;32.50;;;;;24.28;57.36;100654.84;4970736;28;46290;-72
2023/06/12 11:24:23;;;;;;;;;30.75;28.50;;;;;24.31;56.96;100661.66;4973470;28;45904;-72
2023/06/12 11:26:52;;;;;;;;;34.25;31.50;;;;;24.31;57.41;100650.94;4973523;28;45525;-73
2023/06/12 11:29:25;;;;;;;;;28.75;27.50;;;;;24.34;56.95;100658.59;4973658;28;46288;-74
2023/06/12 11:38:24;;;;;;;;;27.75;25.50;;;;;24.28;57.56;100646.81;4973354;28;45644;-73
2023/06/12 11:40:51;;;;;;;;;28.25;27.25;;;;;24.31;57.27;100641.06;4973085;28;46462;-73
2023/06/12 11:43:17;;;;;;;;;25.25;25.00;;;;;24.30;57.03;100631.38;4973153;28;47054;-74
2023/06/12 11:45:43;;;;;;;;;25.25;25.00;;;;;24.36;56.85;100635.09;4972848;28;45576;-73
2023/06/12 11:48:14;;;;;;;;;25.50;22.50;;;;;24.35;56.99;100633.44;4972887;28;45880;-73
2023/06/12 11:50:41;;;;;;;;;34.00;31.00;;;;;24.41;57.19;100633.50;4972966;28;46698;-73
2023/06/12 11:53:06;;;;;;;;;25.25;24.75;;;;;24.47;56.92;100637.22;4973166;28;46138;-73
2023/06/12 11:55:32;;;;;;;;;28.25;25.50;;;;;24.46;56.96;100631.03;4972988;28;45729;-72
2023/06/12 11:58:01;;;;;;;;;24.75;23.50;;;;;24.54;57.06;100635.41;4973552;28;45545;-73
2023/06/12 12:00:27;;;;;;;;;26.00;22.50;;;;;24.57;57.46;100640.38;4972662;28;47352;-73
2023/06/12 12:02:53;;;;;;;;;28.75;24.25;;;;;24.60;57.38;100630.09;4972959;28;46220;-72
2023/06/12 12:05:26;;;;;;;;;26.25;24.50;;;;;24.63;57.07;100637.72;4973498;28;45686;-74
2023/06/12 12:07:57;;;;;;;;;24.00;24.00;;;;;24.66;57.07;100641.88;4973575;28;45830;-74
2023/06/12 12:10:24;;;;;;;;;31.00;27.25;;;;;24.72;56.94;100645.59;4973211;28;46281;-74
2023/06/12 12:12:51;;;;;;;;;24.75;21.50;;;;;24.76;56.98;100644.16;4973777;28;45601;-74
2023/06/12 12:15:21;;;;;;;;;25.50;23.50;;;;;24.80;57.18;100645.41;4955574;28;45914;-74
2023/06/12 12:17:47;;;;;;;;;25.75;22.50;;;;;24.85;56.75;100633.06;4973480;28;45938;-73